Time;durP1;ratioP1;P1;durP2;ratioP2;P2;SDS_P1;SDS_P2;PMS_P1;PMS_P2;Temp;Humidity;BMP_temperature;BMP_pressure;BME280_temperature;BME280_humidity;BME280_pressure;Samples;Min_cycle;Max_cycle;Signal;HPM_P1;HPM_P2
2021/07/01 00:01:09;;;;;;;12.82;8.20;;;;;;;-139.48;100.00;61774.03;4986939;28;20084;-66
2021/07/01 00:03:53;;;;;;;14.20;8.13;;;;;;;-139.48;100.00;61774.03;5000549;28;20053;-66
2021/07/01 00:06:37;;;;;;;12.05;8.38;;;;;;;-139.48;100.00;61774.03;5000451;28;20049;-66
2021/07/01 00:09:23;;;;;;;16.05;7.00;;;;;;;-139.48;100.00;61774.03;5015132;28;20057;-67
2021/07/01 00:12:07;;;;;;;11.63;7.55;;;;;;;-139.48;100.00;61774.03;5000947;28;20049;-66
2021/07/01 00:14:51;;;;;;;10.05;6.70;;;;;;;-139.48;100.00;61774.03;5000136;28;20122;-66
2021/07/01 00:17:35;;;;;;;9.50;5.90;;;;;;;-139.48;100.00;61774.03;4999944;28;20048;-66
2021/07/01 00:20:20;;;;;;;11.07;6.32;;;;;;;-139.48;100.00;61774.03;5015131;28;20053;-66
2021/07/01 00:23:04;;;;;;;10.43;6.30;;;;;;;-139.48;100.00;61774.03;5015070;28;20080;-66
2021/07/01 00:25:49;;;;;;;14.40;7.05;;;;;;;-139.48;100.00;61774.03;4986283;28;20426;-66
2021/07/01 00:28:32;;;;;;;9.63;6.03;;;;;;;-139.48;100.00;61774.03;4999707;28;20096;-66
2021/07/01 00:31:16;;;;;;;10.10;6.55;;;;;;;-139.48;100.00;61774.03;5014907;28;20462;-64
2021/07/01 00:34:00;;;;;;;12.82;6.53;;;;;;;-139.48;100.00;61774.03;5014632;28;20115;-66
2021/07/01 00:36:44;;;;;;;12.68;6.70;;;;;;;-139.48;100.00;61774.03;5014846;28;20048;-66
2021/07/01 00:39:28;;;;;;;9.18;7.03;;;;;;;-139.48;100.00;61774.03;5014511;28;20049;-66
2021/07/01 00:42:13;;;;;;;10.80;5.43;;;;;;;-139.48;100.00;61774.03;4986449;28;20057;-66
2021/07/01 00:44:57;;;;;;;10.52;6.18;;;;;;;-139.48;100.00;61774.03;4986101;28;20422;-65
2021/07/01 00:47:42;;;;;;;11.07;7.03;;;;;;;-139.48;100.00;61774.03;4999687;28;20153;-66
2021/07/01 00:50:27;;;;;;;8.45;5.88;;;;;;;-139.48;100.00;61774.03;5014623;28;20052;-66
2021/07/01 00:53:11;;;;;;;9.48;5.38;;;;;;;-139.48;100.00;61774.03;4999647;28;20088;-65
2021/07/01 00:55:55;;;;;;;9.15;6.68;;;;;;;-139.48;100.00;61774.03;4985849;28;20088;-65
2021/07/01 00:58:40;;;;;;;10.25;5.72;;;;;;;-139.48;100.00;61774.03;4999362;28;20519;-65
2021/07/01 01:01:24;;;;;;;13.05;7.28;;;;;;;-139.48;100.00;61774.03;4999488;28;20044;-66
2021/07/01 01:04:09;;;;;;;11.57;7.10;;;;;;;-139.48;100.00;61774.03;4985964;28;20057;-66
2021/07/01 01:06:52;;;;;;;13.77;6.57;;;;;;;-139.48;100.00;61774.03;4999067;28;20096;-65
2021/07/01 01:09:36;;;;;;;10.85;7.57;;;;;;;-139.48;100.00;61774.03;4999118;28;20055;-66
2021/07/01 01:12:20;;;;;;;9.63;6.45;;;;;;;-139.48;100.00;61774.03;4999371;28;20104;-63
2021/07/01 01:15:05;;;;;;;10.88;7.00;;;;;;;-139.48;100.00;61774.03;5014143;28;20052;-66
2021/07/01 01:17:49;;;;;;;12.63;7.03;;;;;;;-139.48;100.00;61774.03;4985360;28;20179;-65
2021/07/01 01:20:33;;;;;;;13.77;7.07;;;;;;;-139.48;100.00;61774.03;4998752;28;20137;-66
2021/07/01 01:23:17;;;;;;;9.38;7.03;;;;;;;-139.48;100.00;61774.03;4999090;28;20049;-66
2021/07/01 01:26:02;;;;;;;17.48;8.35;;;;;;;-139.48;100.00;61774.03;5014008;28;20048;-65
2021/07/01 01:28:45;;;;;;;12.40;6.45;;;;;;;-139.48;100.00;61774.03;4998868;28;20052;-64
2021/07/01 01:31:29;;;;;;;8.85;6.28;;;;;;;-139.48;100.00;61774.03;4999099;28;20068;-66
2021/07/01 01:34:14;;;;;;;10.60;7.07;;;;;;;-139.48;100.00;61774.03;5013997;28;20061;-65
2021/07/01 01:36:58;;;;;;;9.80;7.05;;;;;;;-139.48;100.00;61774.03;4999235;28;20415;-65
2021/07/01 01:39:50;;;;;;;11.32;6.95;;;;;;;-139.48;100.00;61774.03;5013733;28;20052;-66
2021/07/01 01:42:34;;;;;;;13.45;7.93;;;;;;;-139.48;100.00;61774.03;5013802;28;20103;-65
2021/07/01 01:45:18;;;;;;;9.75;6.90;;;;;;;-139.48;100.00;61774.03;4998992;28;20501;-65
2021/07/01 01:48:02;;;;;;;12.88;6.25;;;;;;;-139.48;100.00;61774.03;4985120;28;20048;-65
2021/07/01 01:50:45;;;;;;;13.73;7.32;;;;;;;-139.48;100.00;61774.03;5013748;28;20081;-65
2021/07/01 01:53:29;;;;;;;11.15;6.88;;;;;;;-139.48;100.00;61774.03;5013682;28;20045;-66
2021/07/01 01:56:18;;;;;;;11.85;7.85;;;;;;;-139.48;100.00;61774.03;5013256;28;20076;-66
2021/07/01 01:59:07;;;;;;;17.40;7.40;;;;;;;-139.48;100.00;61774.03;4999072;28;20116;-65
2021/07/01 02:01:50;;;;;;;9.90;7.47;;;;;;;-139.48;100.00;61774.03;4984979;28;20081;-64
2021/07/01 02:04:34;;;;;;;12.63;7.25;;;;;;;-139.48;100.00;61774.03;4998624;28;20128;-65
2021/07/01 02:07:18;;;;;;;17.45;7.47;;;;;;;-139.48;100.00;61774.03;5013485;28;20088;-65
2021/07/01 02:10:04;;;;;;;15.82;8.10;;;;;;;-139.48;100.00;61774.03;4998917;28;20559;-65
2021/07/01 02:12:48;;;;;;;10.88;7.72;;;;;;;-139.48;100.00;61774.03;4998497;28;20045;-66
2021/07/01 02:15:32;;;;;;;15.48;7.43;;;;;;;-139.48;100.00;61774.03;4998341;28;20052;-65
2021/07/01 02:18:16;;;;;;;12.40;8.27;;;;;;;-139.48;100.00;61774.03;4998290;28;20125;-65
2021/07/01 02:21:00;;;;;;;13.98;7.80;;;;;;;-139.48;100.00;61774.03;5013417;28;20095;-65
2021/07/01 02:23:44;;;;;;;12.38;7.63;;;;;;;-139.48;100.00;61774.03;4984832;28;20123;-65
2021/07/01 02:26:28;;;;;;;12.27;8.05;;;;;;;-139.48;100.00;61774.03;4998263;28;20096;-65
2021/07/01 02:29:11;;;;;;;10.95;7.55;;;;;;;-139.48;100.00;61774.03;5030869;23;20053;-67
2021/07/01 02:31:55;;;;;;;12.98;8.38;;;;;;;-139.48;100.00;61774.03;5020946;28;20132;-68
2021/07/01 02:34:40;;;;;;;13.55;8.07;;;;;;;-139.48;100.00;61774.03;5007778;28;20414;-68
2021/07/01 02:37:25;;;;;;;11.82;7.32;;;;;;;-139.48;100.00;61774.03;5007776;28;20414;-67
2021/07/01 02:40:12;;;;;;;10.88;7.72;;;;;;;-139.48;100.00;61774.03;5039872;28;20072;-67
2021/07/01 02:42:57;;;;;;;12.45;8.10;;;;;;;-139.48;100.00;61774.03;5042253;28;20110;-68
2021/07/01 02:45:41;;;;;;;15.05;8.65;;;;;;;-139.48;100.00;61774.03;5041571;28;20548;-68
2021/07/01 02:48:24;;;;;;;14.25;8.57;;;;;;;-139.48;100.00;61774.03;5041409;28;20128;-68
2021/07/01 02:51:08;;;;;;;13.10;8.48;;;;;;;-139.48;100.00;61774.03;5056281;28;20505;-68
2021/07/01 02:53:53;;;;;;;15.63;8.02;;;;;;;-139.48;100.00;61774.03;5056501;28;20047;-68
2021/07/01 02:56:40;;;;;;;12.73;7.97;;;;;;;-139.48;100.00;61774.03;5041127;28;20098;-67
2021/07/01 02:59:24;;;;;;;12.48;7.55;;;;;;;-139.48;100.00;61774.03;5041412;28;20056;-68
2021/07/01 03:02:08;;;;;;;10.05;7.80;;;;;;;-139.48;100.00;61774.03;5027283;28;20048;-68
2021/07/01 03:04:52;;;;;;;11.10;7.43;;;;;;;-139.48;100.00;61774.03;5041180;28;20501;-67
2021/07/01 03:07:36;;;;;;;12.73;6.90;;;;;;;-139.48;100.00;61774.03;5056260;28;20048;-67
2021/07/01 03:10:21;;;;;;;11.13;7.18;;;;;;;-139.48;100.00;61774.03;5055955;28;20064;-67
2021/07/01 03:13:05;;;;;;;12.93;8.77;;;;;;;-139.48;100.00;61774.03;5026776;28;20106;-65
2021/07/01 03:15:49;;;;;;;12.23;7.70;;;;;;;-139.48;100.00;61774.03;5040986;28;20140;-68
2021/07/01 03:18:32;;;;;;;10.45;6.82;;;;;;;-139.48;100.00;61774.03;5026853;28;20063;-67
2021/07/01 03:21:17;;;;;;;12.05;6.80;;;;;;;-139.48;100.00;61774.03;5040922;28;20067;-68
2021/07/01 03:24:01;;;;;;;10.35;7.88;;;;;;;-139.48;100.00;61774.03;5055875;28;20056;-68
2021/07/01 03:26:45;;;;;;;14.48;8.05;;;;;;;-139.48;100.00;61774.03;5040778;28;20052;-67
2021/07/01 03:29:29;;;;;;;19.30;7.75;;;;;;;-139.48;100.00;61774.03;5040263;28;20048;-68
2021/07/01 03:32:13;;;;;;;14.23;7.60;;;;;;;-139.48;100.00;61774.03;5026711;28;20468;-67
2021/07/01 03:34:57;;;;;;;11.55;8.13;;;;;;;-139.48;100.00;61774.03;5055494;28;20083;-68
2021/07/01 03:37:41;;;;;;;12.32;8.65;;;;;;;-139.48;100.00;61774.03;5040543;28;20052;-67
2021/07/01 03:40:25;;;;;;;13.68;7.88;;;;;;;-139.48;100.00;61774.03;5040546;28;20505;-68
2021/07/01 03:43:09;;;;;;;15.15;8.27;;;;;;;-139.48;100.00;61774.03;5054676;28;20517;-67
2021/07/01 03:45:53;;;;;;;17.92;8.43;;;;;;;-139.48;100.00;61774.03;5040442;28;20078;-68
2021/07/01 03:48:37;;;;;;;15.32;8.80;;;;;;;-139.48;100.00;61774.03;5040572;28;20110;-68
2021/07/01 03:51:21;;;;;;;21.48;9.25;;;;;;;-139.48;100.00;61774.03;5055206;28;20052;-68
2021/07/01 03:54:05;;;;;;;13.35;8.07;;;;;;;-139.48;100.00;61774.03;5040276;28;20187;-68
2021/07/01 03:56:49;;;;;;;14.48;8.45;;;;;;;-139.48;100.00;61774.03;5040146;28;20048;-67
2021/07/01 03:59:33;;;;;;;16.55;8.43;;;;;;;-139.48;100.00;61774.03;5026100;28;20044;-67
2021/07/01 04:02:16;;;;;;;19.98;9.05;;;;;;;-139.48;100.00;61774.03;5026397;28;20040;-68
2021/07/01 04:05:00;;;;;;;14.75;8.75;;;;;;;-139.48;100.00;61774.03;5026106;28;20047;-68
2021/07/01 04:07:44;;;;;;;14.38;8.32;;;;;;;-139.48;100.00;61774.03;5040005;28;20086;-68
2021/07/01 04:10:28;;;;;;;12.05;8.80;;;;;;;-139.48;100.00;61774.03;5055296;28;20174;-68
2021/07/01 04:13:13;;;;;;;14.60;9.30;;;;;;;-139.48;100.00;61774.03;5055027;28;20071;-68
2021/07/01 04:15:56;;;;;;;14.68;9.05;;;;;;;-139.48;100.00;61774.03;5039764;28;20131;-68
2021/07/01 04:18:40;;;;;;;16.77;9.10;;;;;;;-139.48;100.00;61774.03;5039436;28;20070;-68
2021/07/01 04:21:27;;;;;;;13.15;8.50;;;;;;;-139.48;100.00;61774.03;5054899;28;20091;-67
2021/07/01 04:24:11;;;;;;;16.33;9.65;;;;;;;-139.48;100.00;61774.03;5054791;28;20103;-68
2021/07/01 04:26:55;;;;;;;15.68;8.70;;;;;;;-139.48;100.00;61774.03;5026030;28;20048;-68
2021/07/01 04:29:39;;;;;;;16.25;8.73;;;;;;;-139.48;100.00;61774.03;5054417;28;20047;-68
2021/07/01 04:32:23;;;;;;;;;;;;;;;-139.48;100.00;61774.03;5040309;28;20128;-68
2021/07/01 04:35:08;;;;;;;10.37;7.17;;;;;;;-139.48;100.00;61774.03;5039251;28;19966;-68
2021/07/01 04:37:52;;;;;;;13.25;8.30;;;;;;;-139.48;100.00;61774.03;5039043;28;20048;-68
2021/07/01 04:40:36;;;;;;;12.23;8.07;;;;;;;-139.48;100.00;61774.03;5025169;28;20442;-68
2021/07/01 04:43:20;;;;;;;13.13;8.35;;;;;;;-139.48;100.00;61774.03;5054425;28;20047;-68
2021/07/01 04:46:04;;;;;;;13.88;8.35;;;;;;;-139.48;100.00;61774.03;5054381;28;20047;-68
2021/07/01 04:48:48;;;;;;;11.07;7.47;;;;;;;-139.48;100.00;61774.03;5038838;28;20426;-68
2021/07/01 04:51:31;;;;;;;16.25;7.55;;;;;;;-139.48;100.00;61774.03;5025215;28;20048;-67
2021/07/01 04:54:16;;;;;;;14.70;7.97;;;;;;;-139.48;100.00;61774.03;5039002;28;20079;-67
2021/07/01 04:57:00;;;;;;;13.68;7.35;;;;;;;-139.48;100.00;61774.03;5054267;28;20052;-68
2021/07/01 04:59:43;;;;;;;11.38;6.95;;;;;;;-139.48;100.00;61774.03;5038763;28;20051;-68
2021/07/01 05:02:27;;;;;;;14.35;7.00;;;;;;;-139.48;100.00;61774.03;5038676;28;20106;-67
2021/07/01 05:05:11;;;;;;;11.85;6.45;;;;;;;-139.48;100.00;61774.03;5025256;28;20102;-68
2021/07/01 05:07:55;;;;;;;10.10;6.20;;;;;;;-139.48;100.00;61774.03;5038637;28;20051;-67
2021/07/01 05:10:39;;;;;;;10.32;6.72;;;;;;;-139.48;100.00;61774.03;5024674;28;20048;-68
2021/07/01 05:13:23;;;;;;;11.70;6.75;;;;;;;-139.48;100.00;61774.03;5038555;28;20091;-67
2021/07/01 05:16:07;;;;;;;10.63;6.38;;;;;;;-139.48;100.00;61774.03;5038970;28;20562;-68
2021/07/01 05:18:51;;;;;;;10.20;5.78;;;;;;;-139.48;100.00;61774.03;5053442;28;20072;-68
2021/07/01 05:21:35;;;;;;;10.18;5.95;;;;;;;-139.48;100.00;61774.03;5025023;28;20131;-68
2021/07/01 05:24:19;;;;;;;10.90;6.18;;;;;;;-139.48;100.00;61774.03;5038609;28;20067;-68
2021/07/01 05:27:03;;;;;;;11.55;6.20;;;;;;;-139.48;100.00;61774.03;5024592;28;20090;-68
2021/07/01 05:29:48;;;;;;;9.02;6.55;;;;;;;-139.48;100.00;61774.03;5024380;28;20060;-67
2021/07/01 05:32:31;;;;;;;11.27;5.72;;;;;;;-139.48;100.00;61774.03;5038504;28;20085;-68
2021/07/01 05:35:15;;;;;;;8.40;5.78;;;;;;;-139.48;100.00;61774.03;5038447;28;20110;-68
2021/07/01 05:37:59;;;;;;;8.77;6.28;;;;;;;-139.48;100.00;61774.03;5038237;28;20055;-67
2021/07/01 05:40:43;;;;;;;8.65;5.57;;;;;;;-139.48;100.00;61774.03;5024214;28;20095;-68
2021/07/01 05:43:27;;;;;;;8.32;5.20;;;;;;;-139.48;100.00;61774.03;5024437;28;20055;-68
2021/07/01 05:46:11;;;;;;;9.63;5.82;;;;;;;-139.48;100.00;61774.03;5038210;28;20072;-67
2021/07/01 05:48:55;;;;;;;13.18;5.72;;;;;;;-139.48;100.00;61774.03;5038212;28;20131;-68
2021/07/01 05:51:40;;;;;;;9.95;5.75;;;;;;;-139.48;100.00;61774.03;5038157;28;20163;-68
2021/07/01 05:54:52;;;;;;;14.60;5.95;;;;;;;-139.48;100.00;61774.03;5038224;28;20505;-67
2021/07/01 05:57:30;;;;;;;6.72;5.22;;;;;;;-139.48;100.00;61774.03;5053017;28;20048;-68
2021/07/01 06:00:17;;;;;;;6.60;4.80;;;;;;;-139.48;100.00;61774.03;5024463;28;20044;-68
2021/07/01 06:03:01;;;;;;;8.18;4.90;;;;;;;-139.48;100.00;61774.03;5053190;28;20140;-68
2021/07/01 06:05:55;;;;;;;7.47;5.40;;;;;;;-139.48;100.00;61774.03;5053660;28;20098;-68
2021/07/01 06:08:40;;;;;;;10.55;5.00;;;;;;;-139.48;100.00;61774.03;5041979;28;20075;-68
2021/07/01 06:11:24;;;;;;;8.13;5.18;;;;;;;-139.48;100.00;61774.03;5042512;28;20464;-67
2021/07/01 06:14:09;;;;;;;11.80;5.10;;;;;;;-139.48;100.00;61774.03;5028168;28;20099;-68
2021/07/01 06:16:55;;;;;;;9.10;5.13;;;;;;;-139.48;100.00;61774.03;5041824;28;20047;-68
2021/07/01 06:19:39;;;;;;;8.63;4.72;;;;;;;-139.48;100.00;61774.03;5041984;28;20528;-67
2021/07/01 06:22:23;;;;;;;11.48;5.10;;;;;;;-139.48;100.00;61774.03;5028386;28;20083;-68
2021/07/01 06:25:08;;;;;;;8.98;5.25;;;;;;;-139.48;100.00;61774.03;5027982;28;20559;-68
2021/07/01 06:27:52;;;;;;;9.10;4.82;;;;;;;-139.48;100.00;61774.03;5041647;28;20039;-68
2021/07/01 06:30:38;;;;;;;8.63;4.97;;;;;;;-139.48;100.00;61774.03;5041647;28;20047;-68
2021/07/01 06:33:22;;;;;;;7.25;4.07;;;;;;;-139.48;100.00;61774.03;5028203;28;20414;-68
2021/07/01 06:36:08;;;;;;;6.57;4.57;;;;;;;-139.48;100.00;61774.03;5027758;28;20067;-67
2021/07/01 06:38:53;;;;;;;7.82;4.65;;;;;;;-139.48;100.00;61774.03;5041636;28;20052;-68
2021/07/01 06:41:43;;;;;;;10.15;4.97;;;;;;;-139.48;100.00;61774.03;5056428;28;20055;-68
2021/07/01 06:44:28;;;;;;;6.57;4.57;;;;;;;-139.48;100.00;61774.03;5056699;28;20047;-68
2021/07/01 06:47:12;;;;;;;6.32;4.60;;;;;;;-139.48;100.00;61774.03;5027834;28;20459;-68
2021/07/01 06:49:56;;;;;;;7.15;5.03;;;;;;;-139.48;100.00;61774.03;5027388;28;20052;-68
2021/07/01 06:52:43;;;;;;;7.63;4.43;;;;;;;-139.48;100.00;61774.03;5041140;28;20076;-68
2021/07/01 06:55:27;;;;;;;5.20;4.07;;;;;;;-139.48;100.00;61774.03;5041813;28;20504;-68
2021/07/01 06:58:11;;;;;;;7.88;4.40;;;;;;;-139.48;100.00;61774.03;5040911;28;20159;-68
2021/07/01 07:00:56;;;;;;;7.07;4.03;;;;;;;-139.48;100.00;61774.03;5041395;28;20043;-68
2021/07/01 07:03:44;;;;;;;7.25;4.90;;;;;;;-139.48;100.00;61774.03;5041256;28;20055;-67
2021/07/01 07:06:28;;;;;;;7.15;4.65;;;;;;;-139.48;100.00;61774.03;5041337;28;20120;-67
2021/07/01 07:09:13;;;;;;;8.18;4.60;;;;;;;-139.48;100.00;61774.03;5040926;28;20051;-68
2021/07/01 07:11:57;;;;;;;9.68;4.70;;;;;;;-139.48;100.00;61774.03;5041143;28;20140;-68
2021/07/01 07:14:41;;;;;;;8.38;5.32;;;;;;;-139.48;100.00;61774.03;5040871;28;20048;-68
2021/07/01 07:17:30;;;;;;;5.57;4.65;;;;;;;-139.48;100.00;61774.03;5025489;28;20044;-68
2021/07/01 07:20:19;;;;;;;9.82;4.70;;;;;;;-139.48;100.00;61774.03;5027013;28;20428;-68
2021/07/01 07:23:04;;;;;;;7.63;4.80;;;;;;;-139.48;100.00;61774.03;5040841;28;20106;-68
2021/07/01 07:25:49;;;;;;;5.82;4.10;;;;;;;-139.48;100.00;61774.03;5040926;28;20064;-68
2021/07/01 07:28:36;;;;;;;6.35;4.93;;;;;;;-139.48;100.00;61774.03;5040613;28;20404;-68
2021/07/01 07:31:31;;;;;;;6.30;4.60;;;;;;;-139.48;100.00;61774.03;5040948;28;20198;-67
2021/07/01 07:34:16;;;;;;;6.25;4.32;;;;;;;-139.48;100.00;61774.03;5041966;28;20048;-68
2021/07/01 07:37:00;;;;;;;4.45;3.42;;;;;;;-139.48;100.00;61774.03;5040581;28;20127;-67
2021/07/01 07:39:45;;;;;;;5.20;3.97;;;;;;;-139.48;100.00;61774.03;5026548;28;20460;-68
2021/07/01 07:42:30;;;;;;;6.90;4.10;;;;;;;-139.48;100.00;61774.03;5026276;28;20137;-68
2021/07/01 07:45:15;;;;;;;5.68;3.25;;;;;;;-139.48;100.00;61774.03;5040281;28;20048;-68
2021/07/01 07:47:59;;;;;;;5.97;2.72;;;;;;;-139.48;100.00;61774.03;5040459;28;20048;-68
2021/07/01 07:50:49;;;;;;;2.78;2.58;;;;;;;-139.48;100.00;61774.03;5040632;28;20512;-68
2021/07/01 07:53:34;;;;;;;2.88;2.35;;;;;;;-139.48;100.00;61774.03;5026338;28;20044;-67
2021/07/01 07:56:23;;;;;;;3.15;2.85;;;;;;;-139.48;100.00;61774.03;5040108;28;20476;-68
2021/07/01 07:59:10;;;;;;;5.57;3.45;;;;;;;-139.48;100.00;61774.03;5040051;28;20102;-67
2021/07/01 08:01:54;;;;;;;4.22;2.88;;;;;;;-139.48;100.00;61774.03;5055676;28;20052;-68
2021/07/01 08:04:39;;;;;;;4.82;3.35;;;;;;;-139.48;100.00;61774.03;5040011;28;20195;-68
2021/07/01 08:07:23;;;;;;;6.75;3.00;;;;;;;-139.48;100.00;61774.03;5026158;28;20048;-68
2021/07/01 08:10:13;;;;;;;3.20;2.78;;;;;;;-139.48;100.00;61774.03;5039754;28;20048;-68
2021/07/01 08:13:02;;;;;;;4.60;2.90;;;;;;;-139.48;100.00;61774.03;5040916;28;20118;-68
2021/07/01 08:15:46;;;;;;;3.25;2.95;;;;;;;-139.48;100.00;61774.03;5040581;28;20500;-68
2021/07/01 08:18:38;;;;;;;3.13;2.72;;;;;;;-139.48;100.00;61774.03;5040006;28;20055;-68
2021/07/01 08:21:21;;;;;;;6.10;2.75;;;;;;;-139.48;100.00;61774.03;5040375;28;20047;-68
2021/07/01 08:24:07;;;;;;;3.28;2.90;;;;;;;-139.48;100.00;61774.03;5025784;28;20433;-68
2021/07/01 08:26:51;;;;;;;3.38;2.63;;;;;;;-139.48;100.00;61774.03;5039671;28;20075;-68
2021/07/01 08:29:36;;;;;;;5.15;3.15;;;;;;;-139.48;100.00;61774.03;5038784;28;20055;-68
2021/07/01 08:32:19;;;;;;;5.82;3.22;;;;;;;-139.48;100.00;61774.03;5025239;28;20094;-68
2021/07/01 08:35:04;;;;;;;3.55;2.60;;;;;;;-139.48;100.00;61774.03;5039320;28;20094;-68
2021/07/01 08:37:50;;;;;;;5.20;3.22;;;;;;;-139.48;100.00;61774.03;5039283;28;20099;-68
2021/07/01 08:40:36;;;;;;;3.47;3.00;;;;;;;-139.48;100.00;61774.03;5039267;28;20115;-68
2021/07/01 08:43:21;;;;;;;6.10;3.35;;;;;;;-139.48;100.00;61774.03;5039270;28;20051;-68
2021/07/01 08:46:14;;;;;;;4.15;3.20;;;;;;;-139.48;100.00;61774.03;5039351;28;20118;-68
2021/07/01 08:48:59;;;;;;;5.32;3.30;;;;;;;-139.48;100.00;61774.03;5025080;28;20422;-68
2021/07/01 08:51:45;;;;;;;5.03;3.15;;;;;;;-139.48;100.00;61774.03;5054463;28;20051;-68
2021/07/01 08:54:33;;;;;;;5.13;2.80;;;;;;;-139.48;100.00;61774.03;5025333;28;20051;-68
2021/07/01 08:57:19;;;;;;;5.93;3.25;;;;;;;-139.48;100.00;61774.03;5039379;28;20093;-68
2021/07/01 09:00:06;;;;;;;4.75;3.00;;;;;;;-139.48;100.00;61774.03;5038758;28;20095;-68
2021/07/01 09:03:02;;;;;;;7.05;3.38;;;;;;;-139.48;100.00;61774.03;5054060;28;20091;-68
2021/07/01 09:05:46;;;;;;;4.50;3.50;;;;;;;-139.48;100.00;61774.03;5038663;28;20417;-69
2021/07/01 09:08:31;;;;;;;6.50;3.08;;;;;;;-139.48;100.00;61774.03;5053890;28;20048;-68
2021/07/01 09:11:17;;;;;;;3.60;3.30;;;;;;;-139.48;100.00;61774.03;5053898;28;20103;-68
2021/07/01 09:14:07;;;;;;;6.55;3.08;;;;;;;-139.48;100.00;61774.03;5024478;28;20105;-68
2021/07/01 09:16:51;;;;;;;8.13;3.65;;;;;;;-139.48;100.00;61774.03;5053422;28;20438;-68
2021/07/01 09:19:37;;;;;;;7.72;3.75;;;;;;;-139.48;100.00;61774.03;5024666;28;20509;-68
2021/07/01 09:22:25;;;;;;;4.65;3.38;;;;;;;-139.48;100.00;61774.03;5024454;28;20068;-68
2021/07/01 09:25:11;;;;;;;3.70;3.30;;;;;;;-139.48;100.00;61774.03;5038620;28;20051;-68
2021/07/01 09:27:56;;;;;;;4.93;3.92;;;;;;;-139.48;100.00;61774.03;5038878;28;20046;-68
2021/07/01 09:30:40;;;;;;;4.20;3.55;;;;;;;-139.48;100.00;61774.03;5024675;28;20125;-68
2021/07/01 09:33:23;;;;;;;5.38;3.80;;;;;;;-139.48;100.00;61774.03;5038184;28;20467;-68
2021/07/01 09:36:08;;;;;;;4.90;3.65;;;;;;;-139.48;100.00;61774.03;5038296;28;20052;-68
2021/07/01 09:38:54;;;;;;;5.80;3.70;;;;;;;-139.48;100.00;61774.03;5038291;28;20099;-68
2021/07/01 09:41:38;;;;;;;3.50;3.15;;;;;;;-139.48;100.00;61774.03;5037663;28;20091;-68
2021/07/01 09:44:22;;;;;;;;;;;;;;;-139.48;100.00;61774.03;5038717;28;20133;-68
2021/07/01 09:47:09;;;;;;;6.37;3.83;;;;;;;-139.48;100.00;61774.03;5038395;28;19982;-68
2021/07/01 09:49:54;;;;;;;4.30;3.50;;;;;;;-139.48;100.00;61774.03;5024245;28;20047;-68
2021/07/01 09:52:40;;;;;;;5.07;3.30;;;;;;;-139.48;100.00;61774.03;5038446;28;20048;-68
2021/07/01 09:55:29;;;;;;;5.47;3.53;;;;;;;-139.48;100.00;61774.03;5038480;28;20094;-68
2021/07/01 09:58:13;;;;;;;6.07;4.22;;;;;;;-139.48;100.00;61774.03;5037636;28;20048;-68
2021/07/01 10:00:57;;;;;;;8.77;4.25;;;;;;;-139.48;100.00;61774.03;5024115;28;20529;-68
2021/07/01 10:03:58;;;;;;;10.05;4.38;;;;;;;-139.48;100.00;61774.03;5038061;28;20075;-68
2021/07/01 10:06:42;;;;;;;4.50;3.95;;;;;;;-139.48;100.00;61774.03;5037783;28;20076;-68
2021/07/01 10:09:30;;;;;;;8.80;4.38;;;;;;;-139.48;100.00;61774.03;5037741;28;20047;-68
2021/07/01 10:12:18;;;;;;;5.68;3.75;;;;;;;-139.48;100.00;61774.03;5053121;28;20048;-68
2021/07/01 10:15:05;;;;;;;6.43;4.00;;;;;;;-139.48;100.00;61774.03;5053312;28;20106;-68
2021/07/01 10:18:09;;;;;;;6.00;4.50;;;;;;;-139.48;100.00;61774.03;5023850;28;20048;-68
2021/07/01 10:20:56;;;;;;;5.90;4.07;;;;;;;-139.48;100.00;61774.03;5038008;28;20051;-68
2021/07/01 10:23:40;;;;;;;8.45;4.30;;;;;;;-139.48;100.00;61774.03;5037905;28;20512;-67
2021/07/01 10:26:24;;;;;;;4.32;3.80;;;;;;;-139.48;100.00;61774.03;5037799;28;20572;-68
2021/07/01 10:29:08;;;;;;;5.70;3.72;;;;;;;-139.48;100.00;61774.03;5037471;28;20051;-68
2021/07/01 10:31:59;;;;;;;5.53;4.07;;;;;;;-139.48;100.00;61774.03;5037606;28;20048;-68
2021/07/01 10:34:48;;;;;;;5.88;4.30;;;;;;;-139.48;100.00;61774.03;5037791;28;20044;-68
2021/07/01 10:37:32;;;;;;;7.60;4.90;;;;;;;-139.48;100.00;61774.03;5037581;28;20128;-68
2021/07/01 10:40:20;;;;;;;7.60;4.50;;;;;;;-139.48;100.00;61774.03;5037198;28;20052;-67
2021/07/01 10:43:05;;;;;;;7.32;4.47;;;;;;;-139.48;100.00;61774.03;5037528;28;20055;-68
2021/07/01 10:45:57;;;;;;;5.05;4.15;;;;;;;-139.48;100.00;61774.03;5037748;28;20047;-68
2021/07/01 10:48:41;;;;;;;6.63;4.25;;;;;;;-139.48;100.00;61774.03;5037915;28;20051;-68
2021/07/01 10:51:28;;;;;;;4.75;3.88;;;;;;;-139.48;100.00;61774.03;5037801;28;20051;-67
2021/07/01 10:54:14;;;;;;;6.78;4.55;;;;;;;-139.48;100.00;61774.03;5041752;28;20047;-68
2021/07/01 10:57:06;;;;;;;4.07;3.70;;;;;;;-139.48;100.00;61774.03;5041034;28;20055;-68
2021/07/01 10:59:52;;;;;;;5.85;3.42;;;;;;;-139.48;100.00;61774.03;5056384;28;20567;-68
2021/07/01 11:02:44;;;;;;;6.80;3.63;;;;;;;-139.48;100.00;61774.03;5027133;28;20059;-68
2021/07/01 11:05:35;;;;;;;4.60;3.92;;;;;;;-139.48;100.00;61774.03;5041178;28;20070;-68
2021/07/01 11:08:24;;;;;;;5.43;3.17;;;;;;;-139.48;100.00;61774.03;5041350;28;20079;-67
2021/07/01 11:11:22;;;;;;;5.13;3.35;;;;;;;-139.48;100.00;61774.03;5040761;28;20472;-67
2021/07/01 11:14:11;;;;;;;3.58;3.20;;;;;;;-139.48;100.00;61774.03;5040777;28;20516;-69
2021/07/01 11:17:00;;;;;;;4.35;2.88;;;;;;;-139.48;100.00;61774.03;5040862;28;20068;-68
2021/07/01 11:19:45;;;;;;;3.55;2.97;;;;;;;-139.48;100.00;61774.03;5040689;28;20052;-68
2021/07/01 11:22:44;;;;;;;3.95;2.83;;;;;;;-139.48;100.00;61774.03;5040761;28;20086;-68
2021/07/01 11:25:35;;;;;;;3.80;3.10;;;;;;;-139.48;100.00;61774.03;5055539;28;20060;-68
2021/07/01 11:28:23;;;;;;;5.80;3.20;;;;;;;-139.48;100.00;61774.03;5040433;28;20103;-68
2021/07/01 11:31:07;;;;;;;3.03;2.75;;;;;;;-139.48;100.00;61774.03;5055722;28;20048;-68
2021/07/01 11:33:51;;;;;;;4.78;3.15;;;;;;;-139.48;100.00;61774.03;5056009;28;20048;-68
2021/07/01 11:36:37;;;;;;;3.78;3.03;;;;;;;-139.48;100.00;61774.03;5040611;28;20099;-67
2021/07/01 11:39:27;;;;;;;4.13;2.90;;;;;;;-139.48;100.00;61774.03;5026491;28;20064;-68
2021/07/01 11:42:12;;;;;;;2.97;2.67;;;;;;;-139.48;100.00;61774.03;5026282;28;20055;-68
2021/07/01 11:44:55;;;;;;;3.00;2.70;;;;;;;-139.48;100.00;61774.03;5055888;28;20144;-68
2021/07/01 11:47:43;;;;;;;3.65;3.13;;;;;;;-139.48;100.00;61774.03;5040392;28;20064;-68
2021/07/01 11:50:28;;;;;;;3.45;2.95;;;;;;;-139.48;100.00;61774.03;5026199;28;20603;-69
2021/07/01 11:53:11;;;;;;;5.10;3.20;;;;;;;-139.48;100.00;61774.03;5040093;28;20130;-69
2021/07/01 11:55:58;;;;;;;6.25;2.50;;;;;;;-139.48;100.00;61774.03;5040230;28;20448;-68
2021/07/01 11:58:43;;;;;;;6.85;2.45;;;;;;;-139.48;100.00;61774.03;5054967;28;20540;-68
2021/07/01 12:01:28;;;;;;;3.10;2.80;;;;;;;-139.48;100.00;61774.03;5026609;28;20485;-69
2021/07/01 12:04:17;;;;;;;2.95;2.67;;;;;;;-139.48;100.00;61774.03;5039337;28;20075;-69
2021/07/01 12:07:09;;;;;;;4.15;2.97;;;;;;;-139.48;100.00;61774.03;5039685;28;20409;-69
2021/07/01 12:09:54;;;;;;;3.10;2.80;;;;;;;-139.48;100.00;61774.03;5054760;28;20060;-69
2021/07/01 12:12:39;;;;;;;2.70;2.42;;;;;;;-139.48;100.00;61774.03;5039886;28;20113;-68
2021/07/01 12:15:23;;;;;;;4.13;2.75;;;;;;;-139.48;100.00;61774.03;5039898;28;20051;-68
2021/07/01 12:18:08;;;;;;;3.13;2.40;;;;;;;-139.48;100.00;61774.03;5039455;28;20092;-68
2021/07/01 12:20:55;;;;;;;3.22;2.70;;;;;;;-139.48;100.00;61774.03;5025979;28;20142;-68
2021/07/01 12:23:45;;;;;;;3.88;2.67;;;;;;;-139.48;100.00;61774.03;5040102;28;20052;-68
2021/07/01 12:26:39;;;;;;;3.63;2.80;;;;;;;-139.48;100.00;61774.03;5039488;28;20098;-68
2021/07/01 12:29:46;;;;;;;3.00;2.70;;;;;;;-139.48;100.00;61774.03;5039516;28;20063;-68